createdAt,value
2022-12-01T00:00:40.014Z,103199.56
2022-12-01T00:05:41.604Z,103188.44
2022-12-01T00:10:43.213Z,103199.28
2022-12-01T00:15:44.800Z,103207.22
2022-12-01T00:20:49.064Z,103207.09
2022-12-01T00:25:50.928Z,103209.63
2022-12-01T00:30:52.712Z,103205.19
2022-12-01T00:36:01.148Z,103215.13
2022-12-01T00:41:03.946Z,103204.31
2022-12-01T00:46:05.720Z,103214.88
2022-12-01T00:51:07.310Z,103211.28
2022-12-01T00:56:08.904Z,103221.78
2022-12-01T01:01:10.542Z,103211.81
2022-12-01T01:06:13.039Z,103223.69
2022-12-01T01:11:14.624Z,103227.84
2022-12-01T01:16:19.169Z,103232.41
2022-12-01T01:21:22.516Z,103236.59
2022-12-01T01:26:27.010Z,103253.47
2022-12-01T01:31:30.820Z,103263.28
2022-12-01T01:36:32.944Z,103263.03
2022-12-01T01:41:34.505Z,103268.41
2022-12-01T01:46:36.816Z,103274.00
2022-12-01T01:51:53.750Z,103283.72
2022-12-01T01:56:57.570Z,103286.00
2022-12-01T02:02:08.764Z,103281.16
2022-12-01T02:07:12.759Z,103272.75
2022-12-01T02:12:41.775Z,103275.03
2022-12-01T02:18:25.706Z,103272.94
2022-12-01T02:24:06.608Z,103276.56
2022-12-01T02:29:25.838Z,103272.94
2022-12-01T02:34:50.848Z,103276.25
2022-12-01T02:40:01.947Z,103270.53
2022-12-01T02:45:13.231Z,103278.59
2022-12-01T02:50:15.011Z,103265.72
2022-12-01T02:55:16.654Z,103265.72
2022-12-01T03:00:18.743Z,103262.53
2022-12-01T03:05:32.688Z,103256.38
2022-12-01T03:10:56.179Z,103257.72
2022-12-01T03:16:16.586Z,103252.31
2022-12-01T03:21:28.302Z,103240.31
2022-12-01T03:26:35.470Z,103237.78
2022-12-01T03:31:46.627Z,103234.22
2022-12-01T03:36:53.494Z,103228.59
2022-12-01T03:42:07.833Z,103227.84
2022-12-01T03:47:14.888Z,103226.56
2022-12-01T03:52:36.666Z,103218.91
2022-12-01T03:57:44.998Z,103218.91
2022-12-01T04:02:47.168Z,103221.28
2022-12-01T04:07:48.886Z,103220.41
2022-12-01T04:12:50.815Z,103224.59
2022-12-01T04:17:52.405Z,103223.72
2022-12-01T04:22:53.956Z,103217.09
2022-12-01T04:27:55.588Z,103216.19
2022-12-01T04:32:57.752Z,103217.56
2022-12-01T04:37:59.576Z,103211.44
2022-12-01T04:43:01.219Z,103203.78
2022-12-01T04:48:02.773Z,103197.91
2022-12-01T04:53:04.704Z,103197.91
2022-12-01T04:58:06.364Z,103205.72
2022-12-01T05:03:14.875Z,103206.31
2022-12-01T05:08:16.911Z,103195.88
2022-12-01T05:13:19.944Z,103188.34
2022-12-01T05:18:21.690Z,103182.06
2022-12-01T05:23:24.996Z,103181.81
2022-12-01T05:28:27.610Z,103166.50
2022-12-01T05:33:31.910Z,103161.66
2022-12-01T05:38:33.639Z,103164.97
2022-12-01T05:43:35.304Z,103141.53
2022-12-01T05:48:36.816Z,103137.94
2022-12-01T05:53:38.693Z,103137.06
2022-12-01T05:58:40.609Z,103132.19
2022-12-01T06:03:42.367Z,103128.25
2022-12-01T06:08:44.191Z,103120.75
2022-12-01T06:13:45.931Z,103112.19
2022-12-01T06:18:47.521Z,103117.19
2022-12-01T06:23:49.537Z,103118.06
2022-12-01T06:28:51.133Z,103110.16
2022-12-01T06:34:48.341Z,103113.72
2022-12-01T06:39:50.354Z,103114.47
2022-12-01T06:44:52.135Z,103125.47
2022-12-01T06:49:53.826Z,103123.16
2022-12-01T06:54:55.880Z,103127.22
2022-12-01T06:59:57.908Z,103134.13
2022-12-01T07:04:59.998Z,103133.88
2022-12-01T07:10:01.800Z,103135.78
2022-12-01T07:15:05.072Z,103138.47
2022-12-01T07:20:07.194Z,103144.63
2022-12-01T07:25:09.967Z,103144.31
2022-12-01T07:30:11.973Z,103139.38
2022-12-01T07:35:14.108Z,103156.63
2022-12-01T07:40:15.903Z,103153.94
2022-12-01T07:45:17.462Z,103148.19
2022-12-01T07:50:18.970Z,103153.56
2022-12-01T07:55:20.538Z,103143.22
2022-12-01T08:00:22.286Z,103142.59
2022-12-01T08:05:23.792Z,103142.88
2022-12-01T08:10:25.454Z,103147.06
2022-12-01T08:15:27.218Z,103158.72
2022-12-01T08:20:28.936Z,103151.81
2022-12-01T08:25:30.919Z,103156.97
2022-12-01T08:30:32.568Z,103158.63
2022-12-01T08:35:42.551Z,103162.09
2022-12-01T08:40:44.112Z,103155.44
2022-12-01T08:46:02.866Z,103160.41
2022-12-01T08:51:16.036Z,103165.38
2022-12-01T08:56:30.967Z,103161.28
2022-12-01T09:01:33.480Z,103161.78
2022-12-01T09:06:40.571Z,103160.41
2022-12-01T09:11:43.982Z,103146.78
2022-12-01T09:16:47.722Z,103146.13
2022-12-01T09:21:49.826Z,103135.06
2022-12-01T09:26:56.765Z,103137.47
2022-12-01T09:32:00.065Z,103143.28
2022-12-01T09:37:02.835Z,103139.81
2022-12-01T09:42:16.428Z,103140.19
2022-12-01T09:47:28.217Z,103140.19
2022-12-01T09:52:45.802Z,103130.50
2022-12-01T09:57:49.872Z,103125.28
2022-12-01T10:03:30.558Z,103120.56
2022-12-01T10:08:35.263Z,103110.84
2022-12-01T10:13:36.794Z,103108.97
2022-12-01T10:18:57.183Z,103105.75
2022-12-01T10:24:01.691Z,103109.56
2022-12-01T10:29:12.463Z,103101.16
2022-12-01T10:34:21.486Z,103095.66
2022-12-01T10:39:52.544Z,103089.25
2022-12-01T10:44:56.444Z,103088.38
2022-12-01T10:49:58.836Z,103089.91
2022-12-01T10:55:01.645Z,103092.84
2022-12-01T11:00:09.046Z,103088.50
2022-12-01T11:05:29.345Z,103076.97
2022-12-01T11:10:33.315Z,103081.22
2022-12-01T11:15:40.501Z,103075.59
2022-12-01T11:20:42.642Z,103071.00
2022-12-01T11:26:08.022Z,103058.59
2022-12-01T11:31:11.600Z,103053.59
2022-12-01T11:36:38.007Z,103043.50
2022-12-01T11:41:40.909Z,103026.84
2022-12-01T11:46:50.472Z,103027.00
2022-12-01T11:52:13.685Z,103021.66
2022-12-01T11:57:33.566Z,103017.69
2022-12-01T12:03:04.958Z,103015.81
2022-12-01T12:08:29.947Z,103006.06
2022-12-01T12:14:00.146Z,103005.81
2022-12-01T12:19:33.655Z,103011.56
2022-12-01T12:24:56.635Z,103003.53
2022-12-01T12:30:09.313Z,103002.88
2022-12-01T12:35:17.005Z,102997.00
2022-12-01T12:40:49.151Z,102996.88
2022-12-01T12:46:02.916Z,102994.06
2022-12-01T12:51:13.405Z,102993.56
2022-12-01T12:56:19.471Z,103013.00
2022-12-01T13:01:25.584Z,103013.09
2022-12-01T13:06:46.565Z,103016.06
2022-12-01T13:12:01.334Z,103015.03
2022-12-01T13:17:18.479Z,103018.13
2022-12-01T13:22:29.547Z,103019.16
2022-12-01T13:27:34.355Z,103019.38
2022-12-01T13:32:40.377Z,103022.56
2022-12-01T13:37:43.991Z,103016.81
2022-12-01T13:43:03.061Z,103013.00
2022-12-01T13:48:27.262Z,103010.97
2022-12-01T13:53:35.015Z,103007.00
2022-12-01T13:58:37.315Z,103009.69
2022-12-01T14:03:40.561Z,103006.63
2022-12-01T14:08:48.292Z,102996.16
2022-12-01T14:13:55.803Z,103008.81
2022-12-01T14:18:59.138Z,103006.91
2022-12-01T14:24:05.026Z,103003.19
2022-12-01T14:29:09.885Z,102993.59
2022-12-01T14:34:18.944Z,103000.75
2022-12-01T14:39:28.808Z,102983.38
2022-12-01T14:44:33.508Z,102978.91
2022-12-01T14:49:43.859Z,102973.41
2022-12-01T14:54:48.996Z,102967.81
2022-12-01T15:00:13.858Z,102972.66
2022-12-01T15:05:18.657Z,102977.53
2022-12-01T15:10:37.047Z,102985.94
2022-12-01T15:15:50.712Z,102975.22
2022-12-01T15:21:00.119Z,102985.28
2022-12-01T15:26:02.160Z,102988.47
2022-12-01T15:31:11.129Z,102998.97
2022-12-01T15:36:13.673Z,102996.66
2022-12-01T15:41:30.886Z,102997.66
2022-12-01T15:46:37.019Z,102989.41
2022-12-01T15:51:38.729Z,102983.91
2022-12-01T15:57:30.353Z,102999.06
2022-12-01T16:02:33.631Z,102991.56
2022-12-01T16:08:12.045Z,102997.16
2022-12-01T16:13:38.156Z,102996.66
2022-12-01T16:18:39.927Z,103001.50
2022-12-01T16:23:41.644Z,103006.88
2022-12-01T16:28:43.436Z,103016.56
2022-12-01T16:33:45.276Z,103015.53
2022-12-01T16:38:46.774Z,103024.47
2022-12-01T16:44:05.725Z,103032.75
2022-12-01T16:49:25.050Z,103041.03
2022-12-01T16:54:28.695Z,103055.59
2022-12-01T16:59:45.563Z,103062.50
2022-12-01T17:04:47.536Z,103068.47
2022-12-01T17:09:52.395Z,103069.88
2022-12-01T17:14:54.018Z,103075.25
2022-12-01T17:19:55.858Z,103066.31
2022-12-01T17:24:59.480Z,103078.56
2022-12-01T17:30:01.102Z,103080.47
2022-12-01T17:35:31.717Z,103087.59
2022-12-01T17:40:33.363Z,103095.00
2022-12-01T17:46:25.452Z,103094.84
2022-12-01T17:51:52.934Z,103093.84
2022-12-01T17:56:54.538Z,103096.88
2022-12-01T18:01:56.197Z,103104.53
2022-12-01T18:06:57.892Z,103102.66
2022-12-01T18:12:00.181Z,103091.56
2022-12-01T18:17:01.986Z,103102.50
2022-12-01T18:22:03.675Z,103095.13
2022-12-01T18:27:05.337Z,103081.69
2022-12-01T18:32:06.912Z,103081.09
2022-12-01T18:37:08.823Z,103081.34
2022-12-01T18:42:11.239Z,103079.16
2022-12-01T18:47:13.101Z,103084.13
2022-12-01T18:52:15.030Z,103072.13
2022-12-01T18:57:17.815Z,103074.44
2022-12-01T19:02:19.401Z,103066.22
2022-12-01T19:07:25.213Z,103068.66
2022-12-01T19:12:32.460Z,103070.44
2022-12-01T19:17:36.826Z,103070.78
2022-12-01T19:22:38.475Z,103072.47
2022-12-01T19:27:40.488Z,103062.38
2022-12-01T19:32:43.554Z,103065.97
2022-12-01T19:37:46.035Z,103055.34
2022-12-01T19:42:47.658Z,103047.59
2022-12-01T19:47:51.304Z,103039.94
2022-12-01T19:52:52.910Z,103033.28
2022-12-01T19:57:54.445Z,103036.34
2022-12-01T20:02:56.195Z,103037.38
2022-12-01T20:07:57.796Z,103033.38
2022-12-01T20:12:59.470Z,103043.72
2022-12-01T20:18:01.260Z,103040.63
2022-12-01T20:23:02.892Z,103044.50
2022-12-01T20:28:04.604Z,103047.53
2022-12-01T20:33:06.207Z,103025.25
2022-12-01T20:38:07.912Z,103026.50
2022-12-01T20:43:09.894Z,103027.47
2022-12-01T20:48:11.461Z,103022.38
2022-12-01T20:53:13.016Z,103021.13
2022-12-01T20:58:14.521Z,103025.38
2022-12-01T21:03:17.086Z,103014.75
2022-12-01T21:08:18.852Z,103008.22
2022-12-01T21:13:42.469Z,103003.81
2022-12-01T21:18:58.635Z,102998.63
2022-12-01T21:24:22.244Z,102992.78
2022-12-01T21:29:26.497Z,102983.84
2022-12-01T21:34:29.366Z,102986.13
2022-12-01T21:39:30.954Z,102968.16
2022-12-01T21:44:36.918Z,102945.31
2022-12-01T21:49:39.839Z,102938.69
2022-12-01T21:54:41.602Z,102941.09
2022-12-01T21:59:43.264Z,102944.16
2022-12-01T22:04:45.338Z,102947.28
2022-12-01T22:09:47.984Z,102935.81
2022-12-01T22:14:53.609Z,102918.47
2022-12-01T22:20:15.089Z,102912.47
2022-12-01T22:25:26.133Z,102916.41
2022-12-01T22:30:27.652Z,102920.19
2022-12-01T22:35:45.150Z,102922.72
2022-12-01T22:41:02.304Z,102912.88
2022-12-01T22:46:23.478Z,102910.88
2022-12-01T22:51:31.157Z,102912.53
2022-12-01T22:56:50.206Z,102904.00
2022-12-01T23:01:54.446Z,102905.22
2022-12-01T23:06:59.935Z,102900.69
2022-12-01T23:12:28.744Z,102919.44
2022-12-01T23:18:20.420Z,102910.63
2022-12-01T23:23:28.249Z,102905.78
2022-12-01T23:28:30.621Z,102900.69
2022-12-01T23:33:33.706Z,102905.53
2022-12-01T23:38:40.885Z,102898.97
2022-12-01T23:43:45.166Z,102895.25
2022-12-01T23:48:58.573Z,102901.38
2022-12-01T23:54:07.426Z,102897.03
2022-12-01T23:59:12.593Z,102888.09
